Time;durP1;ratioP1;P1;durP2;ratioP2;P2;SDS_P1;SDS_P2;PMS_P1;PMS_P2;Temp;Humidity;BMP_temperature;BMP_pressure;BME280_temperature;BME280_humidity;BME280_pressure;Samples;Min_cycle;Max_cycle;Signal;HPM_P1;HPM_P2
2022/07/11 00:04:26;;;;;;;8.50;3.87;;;;;15.40;101938.00;;;;10428073;28;20308;-78
2022/07/11 00:09:29;;;;;;;6.00;3.23;;;;;15.40;101930.00;;;;10423887;28;20590;-78
2022/07/11 00:14:31;;;;;;;5.43;3.73;;;;;15.30;101933.00;;;;10462480;28;20640;-77
2022/07/11 00:19:34;;;;;;;5.07;3.80;;;;;15.30;101926.00;;;;10429638;28;20205;-77
2022/07/11 00:24:36;;;;;;;3.47;3.07;;;;;15.20;101924.00;;;;10462843;28;20208;-77
2022/07/11 00:29:38;;;;;;;8.33;3.93;;;;;15.10;101927.00;;;;10445848;28;20307;-77
2022/07/11 00:34:40;;;;;;;5.67;3.60;;;;;15.00;101921.00;;;;10434074;28;20804;-77
2022/07/11 00:39:42;;;;;;;4.37;3.40;;;;;14.90;101915.00;;;;10458520;28;20255;-77
2022/07/11 00:44:44;;;;;;;5.57;4.23;;;;;14.90;101908.00;;;;10445516;28;20247;-78
2022/07/11 00:49:46;;;;;;;6.47;4.50;;;;;14.80;101911.00;;;;10439054;28;20277;-77
2022/07/11 00:54:49;;;;;;;5.27;4.20;;;;;14.80;101914.00;;;;10471092;28;20190;-77
2022/07/11 00:59:52;;;;;;;5.47;4.03;;;;;14.80;101902.00;;;;10465469;28;20222;-77
2022/07/11 01:04:55;;;;;;;6.50;4.07;;;;;14.70;101906.00;;;;10484870;28;20656;-77
2022/07/11 01:09:58;;;;;;;5.53;4.10;;;;;14.70;101914.00;;;;10469200;28;20182;-77
2022/07/11 01:15:02;;;;;;;6.80;4.43;;;;;14.60;101899.00;;;;10452619;28;20204;-77
2022/07/11 01:20:04;;;;;;;8.17;4.20;;;;;14.60;101905.00;;;;10395794;28;20236;-77
2022/07/11 01:25:07;;;;;;;6.13;3.90;;;;;14.50;101913.00;;;;10443065;28;20284;-77
2022/07/11 01:30:09;;;;;;;5.27;4.00;;;;;14.50;101908.00;;;;10483734;28;20200;-77
2022/07/11 01:35:11;;;;;;;6.00;4.10;;;;;14.40;101917.00;;;;10459129;28;20209;-77
2022/07/11 01:40:13;;;;;;;6.77;3.77;;;;;14.30;101911.00;;;;10446462;28;20276;-77
2022/07/11 01:45:15;;;;;;;5.83;3.60;;;;;14.30;101916.00;;;;10430487;28;20560;-77
2022/07/11 01:50:17;;;;;;;4.67;3.87;;;;;14.20;101906.00;;;;10441480;28;20188;-77
2022/07/11 01:55:19;;;;;;;5.80;3.73;;;;;14.10;101909.00;;;;10427450;28;20204;-77
2022/07/11 02:00:21;;;;;;;4.63;3.80;;;;;14.10;101904.00;;;;10464848;28;20233;-77
2022/07/11 02:05:23;;;;;;;6.53;4.00;;;;;14.10;101907.00;;;;10466403;28;20228;-77
2022/07/11 02:10:29;;;;;;;5.47;4.73;;;;;14.00;101904.00;;;;10448213;28;20656;-77
2022/07/11 02:15:31;;;;;;;6.23;4.27;;;;;14.00;101897.00;;;;10482359;28;20533;-77
2022/07/11 02:20:33;;;;;;;7.03;4.97;;;;;14.00;101892.00;;;;10448979;28;20677;-77
2022/07/11 02:25:38;;;;;;;9.80;4.83;;;;;14.00;101904.00;;;;10464840;28;20198;-77
2022/07/11 02:30:42;;;;;;;4.80;3.80;;;;;13.90;101902.00;;;;10482583;28;20208;-77
2022/07/11 02:35:46;;;;;;;7.40;5.17;;;;;13.90;101894.00;;;;10425209;28;20229;-77
2022/07/11 02:40:48;;;;;;;7.77;5.23;;;;;13.80;101896.00;;;;10460358;28;20217;-77
2022/07/11 02:45:50;;;;;;;10.87;5.63;;;;;13.80;101904.00;;;;10462677;28;20198;-77
2022/07/11 02:50:52;;;;;;;7.97;5.90;;;;;13.70;101895.00;;;;10465168;28;20239;-77
2022/07/11 02:55:54;;;;;;;8.77;7.23;;;;;13.70;101898.00;;;;10447281;28;20204;-77
2022/07/11 03:00:56;;;;;;;9.50;6.67;;;;;13.60;101895.00;;;;10465020;28;20248;-77
2022/07/11 03:05:59;;;;;;;10.60;6.60;;;;;13.60;101893.00;;;;10481222;28;20190;-77
2022/07/11 03:11:00;;;;;;;8.20;7.03;;;;;13.60;101911.00;;;;10463940;28;20189;-77
2022/07/11 03:16:08;;;;;;;7.70;6.73;;;;;13.60;101907.00;;;;10464309;28;20190;-77
2022/07/11 03:21:10;;;;;;;16.20;7.33;;;;;13.60;101912.00;;;;10447246;28;20232;-77
2022/07/11 03:26:12;;;;;;;9.53;6.37;;;;;13.60;101917.00;;;;10463881;28;20189;-77
2022/07/11 03:31:14;;;;;;;12.30;6.97;;;;;13.50;101929.00;;;;10405081;28;20264;-77
2022/07/11 03:36:16;;;;;;;8.60;6.80;;;;;13.50;101918.00;;;;10461177;28;20201;-77
2022/07/11 03:41:18;;;;;;;11.83;7.97;;;;;13.50;101919.00;;;;10423800;28;20244;-77
2022/07/11 03:46:20;;;;;;;14.07;9.13;;;;;13.50;101925.00;;;;10459689;28;20568;-76
2022/07/11 03:51:22;;;;;;;12.77;9.77;;;;;13.60;101923.00;;;;10446073;28;20656;-77
2022/07/11 03:56:24;;;;;;;14.70;9.77;;;;;13.60;101924.00;;;;10446652;28;20282;-77
2022/07/11 04:01:26;;;;;;;9.10;7.90;;;;;13.70;101923.00;;;;10443517;28;20233;-76
2022/07/11 04:06:28;;;;;;;9.03;7.90;;;;;13.80;101932.00;;;;10461504;28;20220;-77
2022/07/11 04:11:30;;;;;;;7.33;6.63;;;;;13.90;101925.00;;;;10459626;28;20187;-77
2022/07/11 04:16:33;;;;;;;11.40;8.43;;;;;13.90;101929.00;;;;10418792;28;20690;-77
2022/07/11 04:21:35;;;;;;;10.73;8.40;;;;;14.00;101921.00;;;;10447320;28;20192;-77
2022/07/11 04:26:37;;;;;;;12.87;9.73;;;;;14.20;101915.00;;;;10446778;28;20213;-77
2022/07/11 04:31:39;;;;;;;11.43;9.23;;;;;14.40;101930.00;;;;10468877;28;20277;-77
2022/07/11 04:36:41;;;;;;;16.10;11.00;;;;;14.50;101922.00;;;;10452695;28;20294;-76
2022/07/11 04:41:43;;;;;;;15.23;10.60;;;;;14.70;101915.00;;;;10449582;28;20194;-76
2022/07/11 04:46:44;;;;;;;12.63;10.97;;;;;14.90;101924.00;;;;10435264;28;20267;-77
2022/07/11 04:51:46;;;;;;;14.30;10.33;;;;;15.10;101925.00;;;;10466932;28;20203;-77
2022/07/11 04:56:48;;;;;;;18.13;14.40;;;;;15.30;101919.00;;;;10468060;28;20750;-77
2022/07/11 05:01:50;;;;;;;16.50;13.93;;;;;15.50;101918.00;;;;10474925;28;20214;-77
2022/07/11 05:06:53;;;;;;;27.30;19.27;;;;;15.90;101918.00;;;;10417625;28;20197;-77
2022/07/11 05:11:55;;;;;;;24.20;16.17;;;;;16.10;101921.00;;;;10467636;28;20289;-77
2022/07/11 05:16:57;;;;;;;25.87;18.27;;;;;16.60;101922.00;;;;10452402;28;20377;-77
2022/07/11 05:21:59;;;;;;;20.07;16.53;;;;;17.10;101933.00;;;;10437752;28;20205;-77
2022/07/11 05:27:01;;;;;;;27.63;17.37;;;;;17.50;101942.00;;;;10449090;28;20215;-77
2022/07/11 05:32:03;;;;;;;25.98;18.17;;;;;17.90;101942.00;;;;10467745;28;20926;-77
2022/07/11 05:37:05;;;;;;;25.15;16.90;;;;;18.30;101953.00;;;;10482138;28;20206;-77
2022/07/11 05:42:07;;;;;;;25.35;17.95;;;;;18.60;101950.00;;;;10450236;28;20194;-78
2022/07/11 05:47:09;;;;;;;21.48;16.35;;;;;19.00;101954.00;;;;10483455;28;20185;-78
2022/07/11 05:52:11;;;;;;;16.55;14.48;;;;;19.50;101953.00;;;;10483079;28;20193;-78
2022/07/11 05:57:13;;;;;;;19.05;13.48;;;;;19.90;101946.00;;;;10467405;28;20735;-77
2022/07/11 06:02:15;;;;;;;17.75;14.73;;;;;20.40;101949.00;;;;10432406;28;20221;-78
2022/07/11 06:12:37;;;;;;;16.23;11.80;;;;;20.80;101953.00;;;;10464007;28;20193;-78
2022/07/11 06:17:39;;;;;;;18.60;12.68;;;;;21.20;101951.00;;;;10445460;28;20205;-78
2022/07/11 06:22:41;;;;;;;15.75;10.98;;;;;21.50;101955.00;;;;10448557;28;20644;-78
2022/07/11 06:27:43;;;;;;;14.85;9.77;;;;;21.90;101956.00;;;;10496763;28;20216;-78
2022/07/11 06:32:53;;;;;;;15.00;9.60;;;;;22.30;101949.00;;;;10454454;28;20279;-77
2022/07/11 06:37:56;;;;;;;13.70;9.48;;;;;21.80;101950.00;;;;10448103;28;20647;-78
2022/07/11 06:42:58;;;;;;;17.10;10.35;;;;;21.90;101948.00;;;;10439228;28;20253;-77
2022/07/11 06:48:00;;;;;;;14.18;9.27;;;;;22.20;101945.00;;;;10465615;28;20201;-78
2022/07/11 06:53:03;;;;;;;12.43;8.70;;;;;23.00;101948.00;;;;10447177;28;20190;-78
2022/07/11 06:58:06;;;;;;;11.85;8.60;;;;;22.70;101955.00;;;;10422222;28;20226;-77
2022/07/11 07:03:24;;;;;;;15.93;8.93;;;;;22.80;101970.00;;;;10438652;28;20193;-77
2022/07/11 07:08:28;;;;;;;11.05;6.97;;;;;23.30;101960.00;;;;10448212;28;20530;-77
2022/07/11 07:13:30;;;;;;;11.10;7.47;;;;;23.60;101961.00;;;;10464898;28;20295;-76
2022/07/11 07:18:32;;;;;;;14.05;9.20;;;;;25.00;101958.00;;;;10459973;28;20215;-76
2022/07/11 07:23:38;;;;;;;10.77;8.00;;;;;26.30;101957.00;;;;10433606;28;20272;-78
2022/07/11 07:28:42;;;;;;;10.32;6.78;;;;;27.00;101948.00;;;;10444342;28;20219;-77
2022/07/11 07:33:44;;;;;;;8.75;6.97;;;;;26.70;101956.00;;;;10439545;28;20199;-79
2022/07/11 07:38:48;;;;;;;10.05;7.38;;;;;26.80;101945.00;;;;10444013;28;20213;-79
2022/07/11 07:43:51;;;;;;;11.02;8.15;;;;;27.70;101935.00;;;;10450187;28;20629;-78
2022/07/11 07:48:53;;;;;;;8.93;6.97;;;;;28.20;101939.00;;;;10429428;28;20198;-78
2022/07/11 07:53:55;;;;;;;9.98;6.40;;;;;28.00;101932.00;;;;10442235;28;20312;-78
2022/07/11 07:58:57;;;;;;;6.63;5.95;;;;;27.30;101935.00;;;;10426091;28;21003;-79
2022/07/11 08:04:00;;;;;;;11.23;6.88;;;;;25.70;101916.00;;;;10429297;28;20198;-78
2022/07/11 08:09:04;;;;;;;12.50;7.55;;;;;26.60;101921.00;;;;10448274;28;20193;-78
2022/07/11 08:14:09;;;;;;;8.57;6.47;;;;;27.60;101931.00;;;;10446999;28;20193;-78
2022/07/11 08:19:11;;;;;;;7.55;5.45;;;;;28.90;101950.00;;;;10452048;28;20208;-78
2022/07/11 08:24:13;;;;;;;5.95;5.10;;;;;27.30;101941.00;;;;10433277;28;20271;-78
2022/07/11 08:29:16;;;;;;;9.32;5.20;;;;;27.50;101936.00;;;;10449099;28;20201;-78
2022/07/11 08:34:17;;;;;;;6.93;5.40;;;;;28.00;101936.00;;;;10451759;28;20190;-78
2022/07/11 08:39:20;;;;;;;7.18;4.80;;;;;25.90;101938.00;;;;10450395;28;20564;-78
2022/07/11 08:44:23;;;;;;;6.05;4.70;;;;;25.30;101936.00;;;;10473662;28;20235;-79
2022/07/11 08:49:27;;;;;;;9.60;5.95;;;;;25.10;101931.00;;;;10453683;28;20186;-78
2022/07/11 08:54:29;;;;;;;7.03;4.75;;;;;25.20;101918.00;;;;10417023;28;20221;-79
2022/07/11 08:59:34;;;;;;;6.43;5.30;;;;;26.00;101929.00;;;;10440629;28;20232;-78
2022/07/11 09:04:36;;;;;;;6.18;5.50;;;;;26.70;101920.00;;;;10431736;28;20196;-78
2022/07/11 09:09:38;;;;;;;6.13;4.93;;;;;28.00;101920.00;;;;10426734;28;20191;-78
2022/07/11 09:14:46;;;;;;;4.90;4.30;;;;;29.40;101921.00;;;;10467278;28;20324;-78
2022/07/11 09:19:48;;;;;;;5.28;3.97;;;;;29.60;101914.00;;;;10422596;28;20221;-76
2022/07/11 09:30:20;;;;;;;7.18;5.70;;;;;29.80;101910.00;;;;10432894;28;20244;-78
2022/07/11 09:35:27;;;;;;;6.75;5.28;;;;;30.00;101918.00;;;;10440890;28;20201;-77
2022/07/11 09:40:29;;;;;;;5.47;4.85;;;;;30.10;101911.00;;;;10430031;28;20306;-78
2022/07/11 09:45:32;;;;;;;8.13;5.07;;;;;31.00;101906.00;;;;10416281;28;20724;-77
2022/07/11 09:50:34;;;;;;;7.05;4.78;;;;;30.90;101897.00;;;;10475623;28;20193;-78
2022/07/11 09:55:46;;;;;;;5.30;4.82;;;;;31.10;101905.00;;;;10420231;28;20198;-77
2022/07/11 10:00:59;;;;;;;7.30;5.28;;;;;30.90;101910.00;;;;10463602;28;20210;-77
2022/07/11 10:06:01;;;;;;;6.30;5.10;;;;;31.60;101904.00;;;;10415015;28;20229;-77
2022/07/11 10:11:03;;;;;;;5.65;4.78;;;;;32.00;101906.00;;;;10389178;28;20186;-77
2022/07/11 10:16:17;;;;;;;5.28;4.82;;;;;31.50;101899.00;;;;10424426;28;20248;-77
2022/07/11 10:21:29;;;;;;;6.50;5.90;;;;;32.20;101896.00;;;;10421027;28;20215;-76
2022/07/11 10:27:00;;;;;;;4.68;4.10;;;;;32.60;101912.00;;;;10441456;28;20269;-77
2022/07/11 10:32:11;;;;;;;5.75;4.80;;;;;31.70;101908.00;;;;10465736;28;20193;-76
2022/07/11 10:37:20;;;;;;;6.18;5.03;;;;;32.50;101907.00;;;;10441934;28;20193;-77
2022/07/11 10:42:36;;;;;;;7.68;4.60;;;;;33.30;101907.00;;;;10458030;28;20191;-77
2022/07/11 10:47:42;;;;;;;7.43;6.38;;;;;33.70;101910.00;;;;10444640;28;20186;-78
2022/07/11 10:53:08;;;;;;;5.53;4.75;;;;;34.30;101914.00;;;;10440611;28;20211;-77
2022/07/11 10:58:29;;;;;;;5.60;5.10;;;;;33.30;101924.00;;;;10440540;28;20247;-77
2022/07/11 11:03:31;;;;;;;6.53;5.70;;;;;32.20;101924.00;;;;10449562;28;20276;-77
2022/07/11 11:08:33;;;;;;;7.22;6.22;;;;;31.70;101922.00;;;;10445515;28;20236;-77
2022/07/11 11:13:36;;;;;;;9.52;8.77;;;;;29.80;101935.00;;;;10439621;28;20197;-77
2022/07/11 11:18:42;;;;;;;14.32;12.80;;;;;29.00;101918.00;;;;10459042;28;20205;-77
2022/07/11 11:24:03;;;;;;;14.13;12.82;;;;;28.30;101921.00;;;;10426339;28;20186;-77
2022/07/11 11:29:07;;;;;;;12.60;11.30;;;;;30.10;101921.00;;;;10477486;28;20240;-77
2022/07/11 11:34:09;;;;;;;12.75;11.48;;;;;30.60;101928.00;;;;10451782;28;20193;-77
2022/07/11 11:39:21;;;;;;;11.63;10.57;;;;;31.00;101926.00;;;;10428077;28;20226;-77
2022/07/11 11:44:26;;;;;;;11.43;10.43;;;;;31.40;101924.00;;;;10415774;28;20281;-76
2022/07/11 11:49:40;;;;;;;10.63;9.65;;;;;32.00;101915.00;;;;10451961;28;20212;-76
2022/07/11 11:54:42;;;;;;;8.88;8.07;;;;;32.50;101910.00;;;;10452908;28;20216;-77
2022/07/11 11:59:45;;;;;;;9.88;9.00;;;;;31.80;101917.00;;;;10435490;28;20272;-77
2022/07/11 12:04:47;;;;;;;9.10;8.30;;;;;31.30;101910.00;;;;10409130;28;20243;-77
2022/07/11 12:09:55;;;;;;;7.90;7.20;;;;;32.20;101904.00;;;;10444412;28;20643;-77
2022/07/11 12:14:57;;;;;;;8.00;7.20;;;;;32.70;101894.00;;;;10470964;28;20200;-77
2022/07/11 12:19:59;;;;;;;9.00;6.53;;;;;32.70;101895.00;;;;10445158;28;20618;-76
2022/07/11 12:25:01;;;;;;;6.55;5.85;;;;;32.90;101887.00;;;;10459743;28;20201;-77
2022/07/11 12:30:03;;;;;;;7.10;6.50;;;;;32.70;101883.00;;;;10436751;28;20202;-77
2022/07/11 12:35:13;;;;;;;6.25;5.00;;;;;33.40;101875.00;;;;10430894;28;20679;-77
2022/07/11 12:40:15;;;;;;;6.65;6.05;;;;;33.60;101871.00;;;;10442776;28;20286;-79
2022/07/11 12:45:17;;;;;;;6.60;5.75;;;;;33.40;101877.00;;;;10448301;28;20284;-77
2022/07/11 12:50:28;;;;;;;5.78;4.88;;;;;32.90;101863.00;;;;10444519;28;20217;-77
2022/07/11 12:55:34;;;;;;;5.38;4.88;;;;;33.10;101861.00;;;;10430437;28;20217;-76
2022/07/11 13:00:42;;;;;;;6.68;5.35;;;;;33.20;101862.00;;;;10445247;28;20232;-76
2022/07/11 13:05:51;;;;;;;6.70;6.10;;;;;32.80;101863.00;;;;10467299;28;20198;-76
2022/07/11 13:11:00;;;;;;;7.55;6.75;;;;;32.70;101857.00;;;;10477988;28;20979;-76
2022/07/11 13:16:12;;;;;;;6.95;6.35;;;;;32.50;101859.00;;;;10448655;28;20191;-76
2022/07/11 13:21:17;;;;;;;6.57;6.07;;;;;32.50;101847.00;;;;10464651;28;20206;-76
2022/07/11 13:26:19;;;;;;;6.32;5.78;;;;;33.30;101855.00;;;;10483464;28;20213;-76
2022/07/11 13:31:21;;;;;;;6.45;5.85;;;;;33.10;101858.00;;;;10461338;28;20285;-77
2022/07/11 13:36:23;;;;;;;6.05;5.45;;;;;33.10;101860.00;;;;10427232;28;20198;-76
2022/07/11 13:41:26;;;;;;;7.53;6.75;;;;;33.10;101852.00;;;;10418758;28;20232;-77
2022/07/11 13:46:28;;;;;;;6.72;6.10;;;;;32.20;101858.00;;;;10434562;28;20198;-76
2022/07/11 13:51:36;;;;;;;6.47;5.88;;;;;32.20;101839.00;;;;10443479;28;20709;-76
2022/07/11 13:56:38;;;;;;;5.63;5.20;;;;;33.60;101843.00;;;;10460296;28;20277;-76
2022/07/11 14:01:40;;;;;;;6.10;5.60;;;;;32.30;101853.00;;;;10416504;28;20218;-77
2022/07/11 14:06:46;;;;;;;8.57;7.78;;;;;33.80;101846.00;;;;10438874;28;20209;-77
2022/07/11 14:11:59;;;;;;;5.72;5.32;;;;;33.30;101856.00;;;;10465729;28;20607;-77
2022/07/11 14:17:03;;;;;;;7.18;5.57;;;;;34.20;101832.00;;;;10444455;28;20206;-76
2022/07/11 14:22:06;;;;;;;6.05;5.45;;;;;37.10;101842.00;;;;10429904;28;20209;-77
2022/07/11 14:27:08;;;;;;;5.40;5.00;;;;;38.60;101829.00;;;;10430109;28;20656;-77
2022/07/11 14:32:14;;;;;;;5.47;4.97;;;;;39.60;101837.00;;;;10464503;28;20230;-77
2022/07/11 14:37:17;;;;;;;5.20;4.70;;;;;38.00;101847.00;;;;10470697;28;20194;-77
2022/07/11 14:42:20;;;;;;;5.15;4.75;;;;;39.00;101831.00;;;;10438520;28;20320;-77
2022/07/11 14:47:42;;;;;;;5.43;4.60;;;;;39.40;101826.00;;;;10420332;28;20413;-77
2022/07/11 14:52:44;;;;;;;5.68;5.05;;;;;39.60;101822.00;;;;10452840;28;20190;-77
2022/07/11 14:57:46;;;;;;;5.60;4.07;;;;;35.60;101816.00;;;;10426454;28;20213;-77
2022/07/11 15:13:31;;;;;;;4.70;4.30;;;;;40.20;101814.00;;;;10427127;28;20607;-79
2022/07/11 15:18:33;;;;;;;4.80;3.80;;;;;40.20;101803.00;;;;10441743;28;20209;-77
2022/07/11 15:23:35;;;;;;;3.58;3.13;;;;;39.20;101805.00;;;;10419623;28;20285;-78
2022/07/11 15:28:37;;;;;;;5.45;3.55;;;;;39.30;101806.00;;;;10427237;28;20635;-79
2022/07/11 15:33:43;;;;;;;3.65;3.38;;;;;39.90;101809.00;;;;10460948;28;20668;-77
2022/07/11 15:38:49;;;;;;;4.13;3.30;;;;;39.30;101802.00;;;;10452437;28;20229;-79
2022/07/11 15:43:52;;;;;;;3.35;3.13;;;;;36.80;101803.00;;;;10412360;28;20209;-78
2022/07/11 15:48:54;;;;;;;4.00;3.70;;;;;34.30;101795.00;;;;10433029;28;20821;-78
2022/07/11 15:53:56;;;;;;;5.68;3.50;;;;;33.20;101794.00;;;;10451338;28;20726;-78
2022/07/11 15:58:58;;;;;;;5.22;3.20;;;;;31.20;101786.00;;;;10437968;28;20283;-78
2022/07/11 16:04:02;;;;;;;3.65;2.75;;;;;30.20;101786.00;;;;10439009;28;20290;-79
2022/07/11 16:09:05;;;;;;;3.67;2.80;;;;;29.50;101771.00;;;;10466133;28;20250;-79
2022/07/11 16:14:07;;;;;;;5.40;2.97;;;;;28.70;101764.00;;;;10454206;28;20202;-78
2022/07/11 16:19:09;;;;;;;2.10;1.90;;;;;28.40;101779.00;;;;10403561;28;20241;-78
2022/07/11 16:24:12;;;;;;;4.28;2.42;;;;;28.20;101777.00;;;;10435075;28;20271;-79
2022/07/11 16:29:15;;;;;;;2.63;2.42;;;;;27.90;101776.00;;;;10430257;28;20240;-78
2022/07/11 16:34:17;;;;;;;2.03;1.92;;;;;27.70;101774.00;;;;10479731;28;20201;-79
2022/07/11 16:44:41;;;;;;;4.68;2.38;;;;;27.40;101774.00;;;;10463191;28;20276;-78
2022/07/11 16:49:43;;;;;;;3.17;2.22;;;;;27.10;101776.00;;;;10451149;28;20194;-79
2022/07/11 16:54:47;;;;;;;2.30;1.85;;;;;26.80;101776.00;;;;10448350;28;20225;-79
2022/07/11 16:59:49;;;;;;;2.03;1.90;;;;;26.80;101768.00;;;;10460829;28;20641;-79
2022/07/11 17:04:51;;;;;;;3.55;1.90;;;;;26.90;101767.00;;;;10462892;28;20240;-79
2022/07/11 17:09:54;;;;;;;4.70;2.25;;;;;26.80;101763.00;;;;10424909;28;20206;-80
2022/07/11 17:14:56;;;;;;;2.95;2.20;;;;;26.60;101746.00;;;;10424868;28;20197;-79
2022/07/11 17:19:58;;;;;;;3.30;2.92;;;;;26.40;101752.00;;;;10441676;28;20291;-79
2022/07/11 17:25:02;;;;;;;5.57;3.63;;;;;26.20;101762.00;;;;10438415;28;20190;-79
2022/07/11 17:30:04;;;;;;;4.40;4.00;;;;;26.00;101761.00;;;;10442648;28;20206;-79
2022/07/11 17:35:07;;;;;;;4.22;3.83;;;;;25.90;101768.00;;;;10422650;28;20660;-78
2022/07/11 17:40:09;;;;;;;6.47;4.30;;;;;25.90;101763.00;;;;10445200;28;20213;-79
2022/07/11 17:45:11;;;;;;;5.25;3.80;;;;;26.00;101767.00;;;;10452187;28;20284;-79
2022/07/11 17:50:14;;;;;;;4.80;4.10;;;;;26.00;101770.00;;;;10470090;28;20653;-79
2022/07/11 17:55:18;;;;;;;4.20;3.55;;;;;26.10;101769.00;;;;10438475;28;20198;-79
2022/07/11 18:00:22;;;;;;;4.90;3.53;;;;;26.10;101768.00;;;;10412652;28;20221;-79
2022/07/11 18:05:25;;;;;;;4.45;3.92;;;;;26.10;101776.00;;;;10458647;28;20255;-79
2022/07/11 18:10:28;;;;;;;5.63;4.25;;;;;26.00;101772.00;;;;10458844;28;20197;-79
2022/07/11 18:15:36;;;;;;;5.10;3.70;;;;;25.80;101772.00;;;;10438639;28;20217;-79
2022/07/11 18:20:39;;;;;;;4.05;3.63;;;;;25.60;101769.00;;;;10445497;28;20214;-79
2022/07/11 18:25:48;;;;;;;4.40;3.42;;;;;25.40;101764.00;;;;10415153;28;20201;-79
2022/07/11 18:30:50;;;;;;;3.83;3.20;;;;;25.30;101767.00;;;;10431567;28;20194;-78
2022/07/11 18:35:52;;;;;;;5.78;3.30;;;;;25.10;101757.00;;;;10421526;28;20197;-79
2022/07/11 18:41:12;;;;;;;5.40;3.42;;;;;25.00;101763.00;;;;10418878;28;20263;-81
2022/07/11 18:46:15;;;;;;;5.20;3.45;;;;;24.90;101769.00;;;;10442884;28;20571;-79
2022/07/11 18:51:17;;;;;;;3.72;3.22;;;;;24.70;101768.00;;;;10430611;28;20599;-78
2022/07/11 18:56:19;;;;;;;5.65;3.28;;;;;24.50;101761.00;;;;10437796;28;20280;-79
2022/07/11 19:01:21;;;;;;;8.90;3.00;;;;;24.30;101764.00;;;;10441144;28;20217;-79
2022/07/11 19:06:23;;;;;;;4.03;2.60;;;;;24.00;101764.00;;;;10420950;28;20854;-78
2022/07/11 19:11:25;;;;;;;3.88;2.70;;;;;23.80;101759.00;;;;10443167;28;20664;-79
2022/07/11 19:16:27;;;;;;;3.47;2.80;;;;;23.60;101766.00;;;;10439268;28;20730;-79
2022/07/11 19:21:29;;;;;;;3.92;2.90;;;;;23.40;101762.00;;;;10434146;28;20236;-79
2022/07/11 19:26:32;;;;;;;5.53;3.05;;;;;23.20;101774.00;;;;10422452;28;20239;-79
2022/07/11 19:31:35;;;;;;;4.88;2.88;;;;;23.00;101786.00;;;;10456128;28;20190;-79
2022/07/11 19:36:41;;;;;;;6.15;3.95;;;;;22.80;101789.00;;;;10451391;28;20223;-79
2022/07/11 19:41:44;;;;;;;7.90;3.83;;;;;22.50;101798.00;;;;10404255;28;20218;-79
2022/07/11 19:46:46;;;;;;;5.95;3.65;;;;;22.30;101800.00;;;;10425220;28;20205;-79
2022/07/11 19:51:48;;;;;;;4.78;3.75;;;;;22.00;101805.00;;;;10410101;28;20240;-79
2022/07/11 20:02:11;;;;;;;5.95;4.45;;;;;21.70;101803.00;;;;10427791;28;20262;-79
2022/07/11 20:07:13;;;;;;;6.90;5.00;;;;;21.60;101815.00;;;;10451008;28;20211;-79
2022/07/11 20:12:15;;;;;;;6.28;4.70;;;;;21.40;101822.00;;;;10421122;28;20278;-80
2022/07/11 20:17:17;;;;;;;5.38;4.88;;;;;21.30;101821.00;;;;10419933;28;20197;-79
2022/07/11 20:22:22;;;;;;;5.10;4.68;;;;;21.20;101829.00;;;;10419584;28;20245;-79
2022/07/11 20:27:24;;;;;;;5.25;4.55;;;;;21.00;101829.00;;;;10446451;28;20236;-79
2022/07/11 20:32:27;;;;;;;5.40;4.63;;;;;20.80;101841.00;;;;10403790;28;20190;-79
2022/07/11 20:37:30;;;;;;;7.30;4.28;;;;;20.60;101855.00;;;;10428153;28;20770;-79
2022/07/11 20:42:32;;;;;;;4.78;4.30;;;;;20.50;101857.00;;;;10429848;28;20214;-80
2022/07/11 20:47:35;;;;;;;5.65;4.47;;;;;20.50;101870.00;;;;10412435;28;20206;-79
2022/07/11 20:52:37;;;;;;;4.70;4.30;;;;;20.40;101876.00;;;;10430221;28;20197;-79
2022/07/11 20:57:40;;;;;;;5.55;4.63;;;;;20.30;101883.00;;;;10433054;28;20205;-80
2022/07/11 21:02:42;;;;;;;5.25;4.30;;;;;20.20;101885.00;;;;10430725;28;20221;-80
2022/07/11 21:07:50;;;;;;;4.78;4.13;;;;;20.10;101887.00;;;;10421814;28;20197;-80
2022/07/11 21:12:52;;;;;;;4.78;4.38;;;;;20.10;101896.00;;;;10448297;28;20201;-80
2022/07/11 21:17:57;;;;;;;5.22;4.38;;;;;20.00;101900.00;;;;10407813;28;20287;-80
2022/07/11 21:23:02;;;;;;;4.70;4.22;;;;;19.80;101899.00;;;;10456794;28;20236;-79
2022/07/11 21:28:04;;;;;;;4.63;4.20;;;;;19.70;101922.00;;;;10436146;28;20232;-80
2022/07/11 21:33:07;;;;;;;4.57;4.18;;;;;19.60;101903.00;;;;10417154;28;20490;-80
2022/07/11 21:38:09;;;;;;;4.95;3.80;;;;;19.50;101907.00;;;;10424806;28;20292;-80
2022/07/11 21:43:13;;;;;;;4.55;4.15;;;;;19.50;101898.00;;;;10441826;28;20269;-80
2022/07/11 21:48:15;;;;;;;4.03;3.72;;;;;19.40;101910.00;;;;10435670;28;20208;-80
2022/07/11 21:53:17;;;;;;;3.55;3.25;;;;;19.30;101908.00;;;;10413872;28;20210;-81
2022/07/11 21:58:19;;;;;;;4.35;3.60;;;;;19.20;101921.00;;;;10443660;28;20249;-81
2022/07/11 22:03:22;;;;;;;5.10;3.35;;;;;19.10;101910.00;;;;10428658;28;20222;-81
2022/07/11 22:08:24;;;;;;;4.88;3.33;;;;;19.00;101906.00;;;;10455362;28;20198;-80
2022/07/11 22:13:26;;;;;;;6.25;3.38;;;;;19.00;101919.00;;;;10444405;28;20202;-81
2022/07/11 22:18:28;;;;;;;4.05;3.20;;;;;18.90;101920.00;;;;10456447;28;20202;-81
2022/07/11 22:23:31;;;;;;;8.60;3.40;;;;;18.80;101916.00;;;;10444887;28;20217;-78
2022/07/11 22:28:33;;;;;;;3.47;3.17;;;;;18.80;101919.00;;;;10433415;28;20202;-80
2022/07/11 22:33:35;;;;;;;3.63;3.22;;;;;18.70;101922.00;;;;10443059;28;20212;-81
2022/07/11 22:38:37;;;;;;;5.72;3.03;;;;;18.60;101917.00;;;;10467046;28;20297;-80
2022/07/11 22:43:39;;;;;;;4.22;3.22;;;;;18.50;101919.00;;;;10446560;28;20221;-80
2022/07/11 22:48:41;;;;;;;3.80;3.40;;;;;18.40;101919.00;;;;10423071;28;20198;-80
2022/07/11 22:53:50;;;;;;;3.60;3.30;;;;;18.20;101908.00;;;;10427950;28;20201;-80
2022/07/11 22:58:52;;;;;;;5.78;3.35;;;;;18.00;101921.00;;;;10419609;28;20295;-80
2022/07/11 23:03:54;;;;;;;4.18;3.78;;;;;17.80;101916.00;;;;10432460;28;20702;-80
2022/07/11 23:08:56;;;;;;;4.22;3.83;;;;;17.70;101922.00;;;;10418458;28;20200;-80
2022/07/11 23:13:58;;;;;;;5.65;3.67;;;;;17.50;101912.00;;;;10438787;28;20731;-80
2022/07/11 23:19:01;;;;;;;4.25;3.85;;;;;17.40;101912.00;;;;10415338;28;20326;-80
2022/07/11 23:24:03;;;;;;;4.22;3.80;;;;;17.30;101922.00;;;;10438816;28;20202;-80
2022/07/11 23:29:05;;;;;;;3.50;3.10;;;;;17.20;101922.00;;;;10443806;28;20213;-80
2022/07/11 23:34:07;;;;;;;3.57;3.27;;;;;17.00;101931.00;;;;10441524;28;20231;-80
2022/07/11 23:39:09;;;;;;;5.13;4.50;;;;;16.90;101934.00;;;;10449101;28;20247;-80
2022/07/11 23:44:11;;;;;;;5.17;3.87;;;;;16.80;101942.00;;;;10439234;28;20284;-80
2022/07/11 23:49:13;;;;;;;4.53;4.13;;;;;16.70;101927.00;;;;10443893;28;20205;-80
2022/07/11 23:54:15;;;;;;;5.17;4.10;;;;;16.60;101932.00;;;;10427171;28;20201;-80
2022/07/11 23:59:17;;;;;;;4.97;4.37;;;;;16.60;101931.00;;;;10470621;28;20718;-80
